Time;durP1;ratioP1;P1;durP2;ratioP2;P2;SDS_P1;SDS_P2;PMS_P1;PMS_P2;Temp;Humidity;BMP_temperature;BMP_pressure;BME280_temperature;BME280_humidity;BME280_pressure;Samples;Min_cycle;Max_cycle;Signal;HPM_P1;HPM_P2
2022/05/15 00:01:53;;;;;;;23.03;8.00;;;13.10;99.90;;;;;;5010601;28;20229;-83
2022/05/15 00:04:20;;;;;;;27.40;8.47;;;13.10;99.90;;;;;;5017389;28;20547;-85
2022/05/15 00:06:47;;;;;;;20.10;8.30;;;13.00;99.90;;;;;;5028272;28;20230;-86
2022/05/15 00:09:14;;;;;;;21.63;7.90;;;13.00;99.90;;;;;;5028732;28;20207;-86
2022/05/15 00:11:40;;;;;;;21.73;8.03;;;13.00;99.90;;;;;;5029538;28;20238;-86
2022/05/15 00:14:07;;;;;;;25.37;7.57;;;13.00;99.90;;;;;;5029294;28;20206;-84
2022/05/15 00:16:34;;;;;;;36.20;9.17;;;12.90;99.90;;;;;;5029256;28;20218;-84
2022/05/15 00:19:02;;;;;;;28.70;8.80;;;12.90;99.90;;;;;;5028023;28;20641;-84
2022/05/15 00:21:29;;;;;;;22.63;8.33;;;13.00;99.90;;;;;;5028101;28;20206;-86
2022/05/15 00:23:56;;;;;;;22.37;8.37;;;12.90;99.90;;;;;;5021219;28;20207;-84
2022/05/15 00:26:23;;;;;;;34.37;8.70;;;12.90;99.90;;;;;;5008441;28;20226;-83
2022/05/15 00:28:50;;;;;;;24.00;8.07;;;12.90;99.90;;;;;;5007792;28;20207;-83
2022/05/15 00:31:16;;;;;;;24.50;7.93;;;12.90;99.90;;;;;;5008323;28;20839;-83
2022/05/15 00:33:44;;;;;;;18.77;7.27;;;12.90;99.90;;;;;;5007723;28;20211;-83
2022/05/15 00:36:12;;;;;;;27.27;8.50;;;12.80;99.90;;;;;;5006255;28;20571;-83
2022/05/15 00:38:40;;;;;;;40.00;9.93;;;12.80;99.90;;;;;;5009960;28;20203;-87
2022/05/15 00:41:08;;;;;;;18.37;7.00;;;12.80;99.90;;;;;;5028612;28;20218;-86
2022/05/15 00:43:42;;;;;;;22.10;8.17;;;12.80;99.90;;;;;;5031765;28;20206;-85
2022/05/15 00:46:11;;;;;;;21.00;7.73;;;12.70;99.90;;;;;;5032160;28;20211;-85
2022/05/15 00:48:38;;;;;;;24.07;7.77;;;12.70;99.90;;;;;;5031627;28;20591;-85
2022/05/15 00:51:13;;;;;;;20.47;6.97;;;12.70;99.90;;;;;;5025656;28;20214;-83
2022/05/15 00:53:42;;;;;;;16.37;7.03;;;12.60;99.90;;;;;;5011822;28;20198;-84
2022/05/15 00:56:10;;;;;;;15.03;7.50;;;12.60;99.90;;;;;;5012577;28;20227;-86
2022/05/15 00:58:43;;;;;;;28.23;7.53;;;12.60;99.90;;;;;;5012118;28;20604;-85
2022/05/15 01:01:10;;;;;;;15.03;6.77;;;12.60;99.90;;;;;;5023659;28;20211;-85
2022/05/15 01:03:39;;;;;;;19.37;6.93;;;12.60;99.90;;;;;;5033023;28;20203;-84
2022/05/15 01:06:06;;;;;;;18.57;7.00;;;12.50;99.90;;;;;;5032893;28;20231;-85
2022/05/15 01:08:34;;;;;;;24.57;8.87;;;12.50;99.90;;;;;;5031544;28;20206;-86
2022/05/15 01:11:08;;;;;;;27.60;8.93;;;12.50;99.90;;;;;;5030283;28;20199;-86
2022/05/15 01:13:38;;;;;;;32.00;9.30;;;12.50;99.90;;;;;;5011227;28;20286;-84
2022/05/15 01:16:06;;;;;;;22.40;7.53;;;12.50;99.90;;;;;;4993346;28;20204;-83
2022/05/15 01:18:36;;;;;;;21.00;7.83;;;12.60;99.90;;;;;;4991778;28;20196;-83
2022/05/15 01:21:19;;;;;;;22.47;8.80;;;12.50;99.90;;;;;;4992081;28;20207;-84
2022/05/15 01:23:46;;;;;;;23.70;7.53;;;12.50;99.90;;;;;;5004251;28;20639;-84
2022/05/15 01:26:14;;;;;;;16.03;6.93;;;12.40;99.90;;;;;;5012333;28;20277;-85
2022/05/15 01:28:42;;;;;;;17.27;5.87;;;12.40;99.90;;;;;;5011554;28;20211;-84
2022/05/15 01:31:09;;;;;;;19.40;7.63;;;12.30;99.90;;;;;;5012021;28;20250;-83
2022/05/15 01:33:35;;;;;;;15.07;6.93;;;12.30;99.90;;;;;;5011556;28;20207;-84
2022/05/15 01:36:04;;;;;;;18.13;7.17;;;12.30;99.90;;;;;;5010966;28;20214;-84
2022/05/15 01:38:31;;;;;;;17.17;7.33;;;12.20;99.90;;;;;;5011775;28;20195;-84
2022/05/15 01:40:58;;;;;;;14.87;6.97;;;12.20;99.90;;;;;;5011996;28;20740;-85
2022/05/15 01:43:25;;;;;;;17.67;6.97;;;12.10;99.90;;;;;;5004930;28;20239;-86
2022/05/15 01:45:51;;;;;;;24.97;8.67;;;12.10;99.90;;;;;;4992163;28;20235;-87
2022/05/15 01:48:18;;;;;;;22.80;8.03;;;12.10;99.90;;;;;;4992228;28;20211;-85
2022/05/15 01:50:45;;;;;;;14.63;6.67;;;12.10;99.90;;;;;;4992776;28;20218;-83
2022/05/15 01:53:13;;;;;;;18.47;7.13;;;12.10;99.90;;;;;;5011017;28;20206;-84
2022/05/15 01:55:40;;;;;;;19.60;7.30;;;12.00;99.90;;;;;;5000765;28;20215;-88
2022/05/15 01:58:09;;;;;;;16.47;7.10;;;12.00;99.90;;;;;;4992131;28;20264;-83
2022/05/15 02:00:37;;;;;;;15.47;6.83;;;12.00;99.90;;;;;;4992854;28;20222;-84
2022/05/15 02:03:03;;;;;;;19.43;7.60;;;11.90;99.90;;;;;;4998625;28;20211;-86
2022/05/15 02:05:30;;;;;;;21.33;8.00;;;11.90;99.90;;;;;;5011795;28;20547;-85
2022/05/15 02:07:57;;;;;;;16.67;7.03;;;11.90;99.90;;;;;;5010978;28;20231;-84
2022/05/15 02:10:26;;;;;;;17.60;6.90;;;11.90;99.90;;;;;;5010970;28;20238;-83
2022/05/15 02:12:52;;;;;;;14.90;6.10;;;11.80;99.90;;;;;;5025233;28;20238;-84
2022/05/15 02:15:19;;;;;;;16.93;7.20;;;11.80;99.90;;;;;;5030563;28;20202;-85
2022/05/15 02:17:46;;;;;;;22.50;7.57;;;11.70;99.90;;;;;;5030866;28;20237;-84
2022/05/15 02:20:15;;;;;;;18.20;7.30;;;11.70;99.90;;;;;;5032068;28;20213;-84
2022/05/15 02:22:42;;;;;;;19.37;7.27;;;11.70;99.90;;;;;;5031469;28;20559;-83
2022/05/15 02:25:12;;;;;;;15.80;6.93;;;11.70;99.90;;;;;;5011303;28;20828;-84
2022/05/15 02:27:40;;;;;;;18.93;7.27;;;11.70;99.90;;;;;;5013753;28;20230;-85
2022/05/15 02:30:09;;;;;;;17.67;7.43;;;11.60;99.90;;;;;;5030009;28;20203;-85
2022/05/15 02:32:36;;;;;;;18.63;8.23;;;11.60;99.90;;;;;;5030070;28;20203;-85
2022/05/15 02:35:03;;;;;;;16.47;6.90;;;11.60;99.90;;;;;;5030320;28;20206;-85
2022/05/15 02:37:30;;;;;;;19.97;7.23;;;11.50;99.90;;;;;;5019887;28;20298;-88
2022/05/15 02:39:57;;;;;;;15.70;7.57;;;11.60;99.90;;;;;;5010614;28;20218;-84
2022/05/15 02:42:24;;;;;;;19.40;7.90;;;11.60;99.90;;;;;;5010028;28;20204;-86
2022/05/15 02:44:52;;;;;;;22.90;8.47;;;11.50;99.90;;;;;;5023622;28;20262;-82
2022/05/15 02:47:19;;;;;;;23.83;7.53;;;11.50;99.90;;;;;;5029790;28;20226;-83
2022/05/15 02:52:30;;;;;;;20.67;7.50;;;11.50;99.90;;;;;;5010425;28;20551;-85
2022/05/15 02:54:57;;;;;;;19.93;7.00;;;11.50;99.90;;;;;;5015750;28;20213;-88
2022/05/15 02:57:24;;;;;;;17.87;6.00;;;11.50;99.90;;;;;;5030602;28;20195;-83
2022/05/15 02:59:53;;;;;;;13.27;5.63;;;11.40;99.90;;;;;;5020232;28;20207;-84
2022/05/15 03:02:19;;;;;;;16.07;6.30;;;11.40;99.90;;;;;;5006971;28;20208;-83
2022/05/15 03:04:47;;;;;;;16.20;6.57;;;11.40;99.90;;;;;;5024560;28;20238;-83
2022/05/15 03:07:14;;;;;;;15.73;6.07;;;11.30;99.90;;;;;;5023302;28;20246;-81
2022/05/15 03:09:41;;;;;;;12.70;5.70;;;11.30;99.90;;;;;;5009547;28;20802;-82
2022/05/15 03:12:08;;;;;;;13.87;5.60;;;11.30;99.90;;;;;;5036068;23;20246;-83
2022/05/15 03:14:35;;;;;;;12.60;5.80;;;11.20;99.90;;;;;;5029496;28;20218;-82
2022/05/15 03:17:03;;;;;;;9.13;5.40;;;11.20;99.90;;;;;;5028779;28;20609;-83
2022/05/15 03:19:30;;;;;;;16.20;6.18;;;11.20;99.90;;;;;;5029024;28;20449;-82
2022/05/15 03:21:57;;;;;;;18.57;6.77;;;11.10;99.90;;;;;;5032427;28;20217;-83
2022/05/15 03:24:23;;;;;;;12.17;5.70;;;11.10;99.90;;;;;;5049382;28;20194;-83
2022/05/15 03:26:50;;;;;;;22.63;7.37;;;11.00;99.90;;;;;;5050662;28;20221;-83
2022/05/15 03:29:19;;;;;;;14.37;5.77;;;11.10;99.90;;;;;;5049624;28;20216;-84
2022/05/15 03:31:46;;;;;;;22.33;6.47;;;11.00;99.90;;;;;;5048330;28;20236;-83
2022/05/15 03:34:16;;;;;;;20.70;7.57;;;11.00;99.90;;;;;;5049148;28;20197;-83
2022/05/15 03:36:46;;;;;;;14.47;6.63;;;11.00;99.90;;;;;;5048951;28;20205;-84
2022/05/15 03:39:14;;;;;;;13.80;6.10;;;11.00;99.90;;;;;;5049939;28;20204;-85
2022/05/15 03:41:42;;;;;;;12.63;5.67;;;11.00;99.90;;;;;;5049456;28;20190;-83
2022/05/15 03:44:09;;;;;;;20.40;7.57;;;11.00;99.90;;;;;;5047907;28;20536;-83
2022/05/15 03:46:36;;;;;;;20.27;7.13;;;11.00;99.90;;;;;;5047497;28;20621;-83
2022/05/15 03:49:03;;;;;;;27.17;8.50;;;11.00;99.90;;;;;;5048834;28;20621;-84
2022/05/15 03:51:32;;;;;;;22.77;8.43;;;11.00;99.90;;;;;;5049264;28;20612;-85
2022/05/15 03:53:59;;;;;;;22.57;7.73;;;11.00;99.90;;;;;;5046762;28;20625;-81
2022/05/15 03:59:08;;;;;;;15.93;6.70;;;11.00;99.90;;;;;;5028382;28;20221;-83
2022/05/15 04:01:35;;;;;;;19.90;7.57;;;11.10;99.90;;;;;;5029351;28;20294;-83
2022/05/15 04:04:02;;;;;;;23.03;8.17;;;11.00;99.90;;;;;;5028504;28;20201;-82
2022/05/15 04:06:29;;;;;;;23.83;7.10;;;11.10;99.90;;;;;;5028492;28;20230;-82
2022/05/15 04:08:57;;;;;;;26.97;8.20;;;11.10;99.90;;;;;;5046839;28;20202;-85
2022/05/15 04:11:24;;;;;;;17.97;7.37;;;11.10;99.90;;;;;;5048053;28;20245;-84
2022/05/15 04:13:51;;;;;;;26.50;8.60;;;11.20;99.90;;;;;;5047703;28;20783;-84
2022/05/15 04:16:18;;;;;;;18.83;6.33;;;11.20;99.90;;;;;;5048559;28;20432;-82
2022/05/15 04:18:45;;;;;;;19.77;6.90;;;11.20;99.90;;;;;;5048266;28;20209;-85
2022/05/15 04:21:12;;;;;;;17.67;7.57;;;11.20;99.90;;;;;;5047323;28;20617;-83
2022/05/15 04:23:39;;;;;;;22.00;7.50;;;11.30;99.90;;;;;;5049178;28;20597;-83
2022/05/15 04:26:08;;;;;;;16.53;6.90;;;11.40;99.90;;;;;;5048840;28;20615;-83
2022/05/15 04:28:35;;;;;;;21.87;6.43;;;11.40;99.90;;;;;;5030600;28;20332;-83
2022/05/15 04:31:02;;;;;;;19.87;6.33;;;11.40;99.90;;;;;;5034631;28;20212;-86
2022/05/15 04:33:29;;;;;;;15.67;6.67;;;11.40;99.90;;;;;;5048580;28;20263;-82
2022/05/15 04:35:56;;;;;;;22.93;7.30;;;11.40;99.90;;;;;;5047937;28;20247;-84
2022/05/15 04:38:23;;;;;;;18.83;6.50;;;11.50;99.90;;;;;;5048604;28;20590;-85
2022/05/15 04:40:50;;;;;;;21.50;7.40;;;11.50;99.90;;;;;;5048312;28;20206;-84
2022/05/15 04:43:18;;;;;;;20.47;6.60;;;11.50;99.90;;;;;;5048418;28;20210;-83
2022/05/15 04:45:45;;;;;;;19.57;6.87;;;11.60;99.90;;;;;;5048325;28;20240;-84
2022/05/15 04:48:13;;;;;;;18.13;6.50;;;11.60;99.90;;;;;;5047936;28;20566;-82
2022/05/15 04:50:40;;;;;;;19.90;6.77;;;11.60;99.90;;;;;;5049122;28;20198;-83
2022/05/15 04:53:08;;;;;;;24.77;7.50;;;11.70;99.90;;;;;;5029743;28;20209;-85
2022/05/15 04:55:35;;;;;;;23.60;7.33;;;11.70;99.90;;;;;;5036521;28;20198;-82
2022/05/15 04:58:02;;;;;;;21.90;7.30;;;11.80;99.90;;;;;;5047822;28;20206;-84
2022/05/15 05:00:31;;;;;;;20.83;6.97;;;11.90;99.90;;;;;;5047944;28;20222;-85
2022/05/15 05:02:58;;;;;;;27.97;6.87;;;11.90;99.90;;;;;;5036490;28;20223;-85
2022/05/15 05:05:25;;;;;;;18.33;6.33;;;12.00;99.90;;;;;;5028741;28;20195;-82
2022/05/15 05:07:51;;;;;;;21.03;7.03;;;12.10;99.90;;;;;;5028272;28;20480;-83
2022/05/15 05:10:19;;;;;;;26.70;7.57;;;12.20;99.90;;;;;;5028496;28;20214;-84
2022/05/15 05:12:45;;;;;;;21.30;6.80;;;12.30;99.90;;;;;;5047044;28;20269;-84
2022/05/15 05:15:13;;;;;;;23.97;6.33;;;12.30;99.90;;;;;;5049146;28;20780;-85
2022/05/15 05:17:43;;;;;;;25.70;6.23;;;12.40;99.90;;;;;;5046900;28;20202;-84
2022/05/15 05:20:11;;;;;;;22.63;7.43;;;12.50;99.90;;;;;;5029356;28;20210;-86
2022/05/15 05:22:39;;;;;;;25.60;5.97;;;12.60;99.90;;;;;;5029486;28;20268;-83
2022/05/15 05:25:06;;;;;;;19.63;6.63;;;12.70;99.90;;;;;;5049622;28;20213;-84
2022/05/15 05:27:34;;;;;;;32.43;7.00;;;12.80;99.90;;;;;;5052999;28;20217;-86
2022/05/15 05:30:00;;;;;;;23.80;6.87;;;12.90;99.90;;;;;;5054910;28;20598;-86
2022/05/15 05:32:27;;;;;;;20.53;6.03;;;13.00;99.90;;;;;;5055607;28;20206;-84
2022/05/15 05:34:55;;;;;;;20.37;5.80;;;13.30;99.90;;;;;;5051714;28;20229;-86
2022/05/15 05:37:22;;;;;;;16.83;6.40;;;13.50;99.90;;;;;;5038667;28;20195;-85
2022/05/15 05:39:50;;;;;;;24.40;6.00;;;13.70;99.90;;;;;;5040816;28;20611;-85
2022/05/15 05:42:17;;;;;;;19.83;6.00;;;13.90;99.90;;;;;;5047359;28;20225;-88
2022/05/15 05:44:44;;;;;;;20.97;5.87;;;14.10;99.90;;;;;;5052160;28;20511;-86
2022/05/15 05:47:10;;;;;;;20.80;6.70;;;14.30;99.90;;;;;;5067212;28;20213;-85
2022/05/15 05:49:37;;;;;;;17.43;6.30;;;14.60;99.90;;;;;;5062874;28;20207;-87
2022/05/15 05:52:06;;;;;;;18.87;5.70;;;15.00;99.90;;;;;;5040489;28;20210;-84
2022/05/15 05:54:33;;;;;;;21.17;6.13;;;15.30;99.90;;;;;;5033975;28;20211;-86
2022/05/15 05:57:00;;;;;;;13.00;5.27;;;15.60;99.90;;;;;;5034214;28;20491;-86
2022/05/15 05:59:27;;;;;;;15.37;5.37;;;16.00;99.90;;;;;;5034850;28;20521;-85
2022/05/15 06:01:53;;;;;;;19.20;5.83;;;16.40;99.90;;;;;;5034472;28;20214;-87
2022/05/15 06:07:08;;;;;;;13.77;5.00;;;17.00;99.90;;;;;;5033163;28;20217;-86
2022/05/15 06:09:36;;;;;;;19.13;5.68;;;17.30;99.90;;;;;;5051652;28;20214;-85
2022/05/15 06:12:04;;;;;;;15.43;5.35;;;17.50;99.90;;;;;;5052645;28;20544;-84
2022/05/15 06:14:30;;;;;;;18.83;5.95;;;17.80;99.90;;;;;;5053281;28;20197;-85
2022/05/15 06:16:57;;;;;;;12.15;4.85;;;18.00;99.90;;;;;;5052642;28;20583;-86
2022/05/15 06:19:24;;;;;;;14.10;5.00;;;18.20;99.90;;;;;;5052518;28;20201;-85
2022/05/15 06:21:51;;;;;;;21.38;5.13;;;18.30;99.90;;;;;;5052564;28;20190;-85
2022/05/15 06:24:19;;;;;;;14.75;5.30;;;18.60;99.90;;;;;;5052188;28;20365;-84
2022/05/15 06:26:46;;;;;;;13.85;5.55;;;18.80;99.90;;;;;;5039307;28;20207;-88
2022/05/15 06:29:13;;;;;;;14.80;5.68;;;19.10;99.90;;;;;;5032491;28;20229;-87
2022/05/15 06:31:39;;;;;;;16.05;5.47;;;19.20;99.90;;;;;;5040402;28;20213;-84
2022/05/15 06:48:14;;;;;;;13.43;4.93;;;20.50;99.90;;;;;;4937781;28;20587;-89
2022/05/15 06:50:42;;;;;;;17.15;5.38;;;20.60;99.90;;;;;;5044340;28;20218;-88
2022/05/15 06:53:12;;;;;;;15.38;5.32;;;20.40;99.90;;;;;;5051516;28;20198;-88
2022/05/15 06:57:28;;;;;;;16.05;5.20;;;20.30;99.90;;;;;;5050314;28;20229;-88
2022/05/15 06:58:27;;;;;;;11.32;4.30;;;20.40;99.90;;;;;;5050431;28;20296;-85
2022/05/15 07:00:53;;;;;;;14.10;4.70;;;20.70;99.90;;;;;;5051690;28;20201;-86
2022/05/15 07:03:25;;;;;;;18.77;5.03;;;21.10;99.90;;;;;;5030227;28;20206;-87
2022/05/15 07:05:52;;;;;;;14.00;4.15;;;21.40;99.90;;;;;;5051080;28;20626;-88
2022/05/15 07:08:19;;;;;;;14.52;5.25;;;21.80;99.90;;;;;;5050621;28;20218;-87
2022/05/15 07:10:46;;;;;;;15.55;4.82;;;22.50;99.90;;;;;;5052383;28;20574;-87
2022/05/15 07:13:13;;;;;;;16.17;5.00;;;22.50;99.90;;;;;;5047624;28;20288;-86
2022/05/15 07:15:40;;;;;;;12.18;4.57;;;22.60;99.90;;;;;;5030590;28;20282;-86
2022/05/15 07:18:09;;;;;;;12.93;4.38;;;22.60;99.90;;;;;;5030105;28;20194;-84
2022/05/15 07:20:38;;;;;;;13.48;4.72;;;22.80;99.90;;;;;;5026180;28;20218;-84
2022/05/15 07:23:05;;;;;;;11.57;4.95;;;23.00;99.90;;;;;;5046428;28;20210;-83
2022/05/15 07:25:32;;;;;;;18.17;4.85;;;23.30;99.90;;;;;;5047923;28;20190;-82
2022/05/15 07:27:59;;;;;;;10.32;4.95;;;23.10;99.90;;;;;;5036207;28;20225;-82
2022/05/15 07:30:26;;;;;;;13.02;4.30;;;23.00;99.90;;;;;;5026828;28;20202;-84
2022/05/15 07:32:53;;;;;;;16.45;4.88;;;23.30;99.90;;;;;;5027686;28;20191;-83
2022/05/15 07:35:20;;;;;;;13.45;4.93;;;23.60;99.90;;;;;;5027782;28;20213;-83
2022/05/15 07:37:48;;;;;;;12.18;4.45;;;23.90;99.90;;;;;;5026134;28;20202;-84
2022/05/15 07:40:15;;;;;;;15.90;5.28;;;24.00;99.90;;;;;;5025484;28;20221;-83
2022/05/15 07:42:43;;;;;;;12.82;4.93;;;24.30;99.90;;;;;;5037929;28;20216;-84
2022/05/15 07:45:10;;;;;;;12.25;4.80;;;24.40;99.90;;;;;;5045541;28;20309;-83
2022/05/15 07:47:37;;;;;;;10.10;4.28;;;24.70;99.90;;;;;;5046132;28;20892;-82
2022/05/15 07:50:06;;;;;;;14.20;4.25;;;24.90;99.90;;;;;;5046917;28;20538;-85
2022/05/15 07:52:33;;;;;;;13.60;4.90;;;25.00;99.90;;;;;;5046466;28;20206;-84
2022/05/15 07:55:01;;;;;;;15.32;5.10;;;24.80;99.90;;;;;;5048218;28;20263;-85
2022/05/15 07:57:28;;;;;;;14.93;5.03;;;24.90;99.90;;;;;;5047862;28;20499;-83
2022/05/15 07:59:56;;;;;;;14.00;5.07;;;25.30;99.90;;;;;;5046125;28;20209;-86
2022/05/15 08:02:22;;;;;;;11.30;4.38;;;25.30;99.90;;;;;;5046645;28;20253;-84
2022/05/15 08:10:19;;;;;;;16.13;5.47;;;25.30;99.90;;;;;;5032279;28;20295;-85
2022/05/15 08:12:46;;;;;;;13.15;4.47;;;25.30;99.90;;;;;;5027283;28;20264;-84
2022/05/15 08:15:13;;;;;;;15.55;5.45;;;25.30;99.90;;;;;;5043930;28;20224;-83
2022/05/15 08:17:39;;;;;;;15.90;4.88;;;25.00;99.90;;;;;;5047000;28;20209;-84
2022/05/15 08:25:39;;;;;;;10.48;4.63;;;25.80;99.90;;;;;;5046564;28;20188;-85
2022/05/15 08:28:06;;;;;;;13.85;4.45;;;25.80;99.90;;;;;;5046552;28;20253;-86
2022/05/15 08:30:34;;;;;;;10.68;4.13;;;25.70;99.90;;;;;;5045425;28;20213;-82
2022/05/15 08:33:01;;;;;;;14.48;4.75;;;25.70;99.90;;;;;;5044117;28;20234;-86
2022/05/15 08:35:28;;;;;;;13.98;4.97;;;25.50;99.90;;;;;;5046107;28;20206;-83
2022/05/15 08:37:55;;;;;;;11.00;4.25;;;25.40;99.90;;;;;;5046505;28;20216;-84
2022/05/15 08:40:26;;;;;;;12.80;4.72;;;25.00;99.90;;;;;;5045468;28;20206;-84
2022/05/15 08:42:56;;;;;;;14.30;5.43;;;24.70;99.90;;;;;;5047605;28;20497;-84
2022/05/15 08:45:26;;;;;;;14.50;5.18;;;24.70;99.90;;;;;;5047480;28;20222;-84
2022/05/15 08:47:59;;;;;;;11.77;4.80;;;24.90;99.90;;;;;;5047583;28;20198;-83
2022/05/15 08:50:29;;;;;;;15.02;5.65;;;25.30;99.90;;;;;;5047112;28;20552;-84
2022/05/15 08:53:01;;;;;;;15.10;5.30;;;25.10;99.90;;;;;;5048134;28;20205;-84
2022/05/15 08:55:37;;;;;;;12.77;5.32;;;24.50;99.90;;;;;;5047725;28;20205;-83
2022/05/15 08:58:07;;;;;;;13.20;4.85;;;24.60;99.90;;;;;;5038547;28;20217;-84
2022/05/15 09:00:42;;;;;;;16.92;5.47;;;24.60;99.90;;;;;;5025811;28;20499;-83
2022/05/15 09:03:15;;;;;;;17.65;6.07;;;24.20;99.90;;;;;;5027428;28;20289;-84
2022/05/15 09:05:50;;;;;;;15.63;5.53;;;24.20;99.90;;;;;;5030848;28;20337;-86
2022/05/15 09:08:45;;;;;;;13.32;5.70;;;24.30;99.90;;;;;;5012603;28;20383;-82
2022/05/15 09:11:15;;;;;;;17.40;5.40;;;24.30;99.90;;;;;;5050270;28;20206;-83
2022/05/15 09:13:52;;;;;;;13.70;5.07;;;24.50;99.90;;;;;;5052846;28;20205;-87
2022/05/15 09:16:24;;;;;;;17.20;6.22;;;24.80;99.90;;;;;;5049122;28;20212;-85
2022/05/15 09:18:51;;;;;;;13.48;5.10;;;24.80;99.90;;;;;;5049436;28;20213;-85
2022/05/15 09:21:18;;;;;;;14.32;4.88;;;25.00;99.90;;;;;;5051758;28;20801;-84
2022/05/15 09:23:49;;;;;;;14.48;5.60;;;25.30;99.90;;;;;;5051863;28;20208;-86
2022/05/15 09:26:19;;;;;;;17.67;5.82;;;25.40;99.90;;;;;;5052961;28;20205;-87
2022/05/15 09:28:51;;;;;;;15.40;5.63;;;25.20;99.90;;;;;;5033201;28;20235;-87
2022/05/15 09:31:24;;;;;;;12.50;4.95;;;25.20;99.90;;;;;;5043351;28;20253;-85
2022/05/15 09:33:55;;;;;;;14.23;5.20;;;25.30;99.90;;;;;;5031261;28;20718;-83
2022/05/15 09:36:26;;;;;;;13.35;5.10;;;24.80;99.90;;;;;;5033196;28;20463;-85
2022/05/15 09:39:14;;;;;;;15.18;5.20;;;24.80;99.90;;;;;;5035496;28;20229;-85
2022/05/15 09:44:28;;;;;;;11.82;4.95;;;24.70;99.90;;;;;;5053299;28;20189;-83
2022/05/15 09:47:00;;;;;;;16.88;5.40;;;24.50;99.90;;;;;;5053298;28;20197;-83
2022/05/15 09:49:31;;;;;;;14.57;4.57;;;24.50;99.90;;;;;;5051851;28;20233;-86
2022/05/15 09:52:01;;;;;;;11.90;4.75;;;24.80;99.90;;;;;;5052903;28;20288;-85
2022/05/15 09:54:43;;;;;;;14.80;4.93;;;24.70;99.90;;;;;;5053329;28;20653;-83
2022/05/15 09:57:14;;;;;;;13.65;4.68;;;24.90;99.90;;;;;;5052405;28;20626;-84
2022/05/15 09:59:43;;;;;;;12.15;5.10;;;24.70;99.90;;;;;;5053103;28;20215;-85
2022/05/15 10:02:20;;;;;;;12.50;4.82;;;24.70;99.90;;;;;;5051475;28;20198;-87
2022/05/15 10:04:49;;;;;;;15.57;5.15;;;24.40;99.90;;;;;;5052100;28;20179;-85
2022/05/15 10:07:31;;;;;;;15.20;5.43;;;24.50;99.90;;;;;;5050046;28;20919;-85
2022/05/15 10:10:16;;;;;;;15.52;4.97;;;24.40;99.90;;;;;;5050781;28;20619;-85
2022/05/15 10:12:45;;;;;;;16.67;5.35;;;24.50;99.90;;;;;;5049422;28;20317;-85
2022/05/15 10:15:15;;;;;;;15.45;5.38;;;24.70;99.90;;;;;;5032295;28;20210;-82
2022/05/15 10:17:48;;;;;;;16.98;4.95;;;24.70;99.90;;;;;;5031925;28;20191;-82
2022/05/15 10:20:22;;;;;;;13.80;5.38;;;24.80;99.90;;;;;;5031130;28;20672;-84
2022/05/15 10:22:53;;;;;;;13.32;5.00;;;24.90;99.90;;;;;;5047654;28;20233;-83
2022/05/15 10:25:24;;;;;;;14.82;5.18;;;25.10;99.90;;;;;;5049896;28;20255;-83
2022/05/15 10:28:05;;;;;;;12.50;4.68;;;25.10;99.90;;;;;;5040504;28;20601;-84
2022/05/15 10:30:40;;;;;;;13.07;4.88;;;25.30;99.90;;;;;;5048910;28;20242;-82
2022/05/15 10:33:14;;;;;;;16.42;5.85;;;25.20;99.90;;;;;;5030525;28;20210;-85
2022/05/15 10:35:47;;;;;;;10.63;4.43;;;25.30;99.90;;;;;;5032184;28;20187;-85
2022/05/15 10:38:29;;;;;;;18.80;5.22;;;25.20;99.90;;;;;;5052646;28;20221;-87
2022/05/15 10:41:10;;;;;;;9.98;4.43;;;25.00;99.90;;;;;;5052935;28;20194;-85
2022/05/15 10:43:53;;;;;;;12.43;4.78;;;25.30;99.90;;;;;;5051492;28;20277;-83
2022/05/15 10:46:32;;;;;;;14.07;4.38;;;25.20;99.90;;;;;;5051050;28;20224;-81
2022/05/15 10:49:18;;;;;;;12.98;4.20;;;25.30;99.90;;;;;;5050284;28;20210;-85
2022/05/15 10:51:57;;;;;;;9.25;4.03;;;25.60;99.90;;;;;;5030527;28;20202;-83
2022/05/15 10:57:29;;;;;;;12.23;4.50;;;25.70;99.90;;;;;;5028270;28;20234;-84
2022/05/15 11:00:08;;;;;;;12.88;4.53;;;26.30;99.90;;;;;;5029276;28;20207;-84
2022/05/15 11:03:08;;;;;;;12.45;4.38;;;26.40;99.90;;;;;;5028356;28;20602;-83
2022/05/15 11:05:43;;;;;;;13.18;5.00;;;26.20;99.90;;;;;;5029517;28;20226;-88
2022/05/15 11:08:23;;;;;;;10.50;4.50;;;26.10;99.90;;;;;;5046612;28;20205;-85
2022/05/15 11:10:56;;;;;;;15.13;4.40;;;25.90;99.90;;;;;;5049819;28;20524;-85
2022/05/15 11:13:30;;;;;;;12.30;4.53;;;25.60;99.90;;;;;;5051626;28;20238;-85
2022/05/15 11:16:04;;;;;;;13.23;4.65;;;25.50;99.90;;;;;;5047651;28;20205;-85
2022/05/15 11:18:44;;;;;;;13.50;4.63;;;26.00;99.90;;;;;;5050949;28;20202;-85
2022/05/15 11:21:18;;;;;;;14.55;4.40;;;26.10;99.90;;;;;;5049946;28;20201;-85
2022/05/15 11:23:54;;;;;;;12.93;4.55;;;26.10;99.90;;;;;;5049484;28;20214;-83
2022/05/15 11:26:26;;;;;;;15.63;4.85;;;25.90;99.90;;;;;;5040343;28;20202;-85
2022/05/15 11:28:56;;;;;;;10.93;4.38;;;25.90;99.90;;;;;;5029325;28;20210;-82
2022/05/15 11:31:29;;;;;;;11.10;4.50;;;26.10;99.90;;;;;;5043729;28;20213;-84
2022/05/15 11:33:59;;;;;;;10.65;4.25;;;26.40;99.90;;;;;;5048093;28;20272;-83
2022/05/15 11:36:35;;;;;;;14.35;4.57;;;26.70;99.90;;;;;;5047780;28;20198;-81
2022/05/15 11:39:06;;;;;;;8.88;3.80;;;27.10;99.90;;;;;;5047155;28;20616;-84
2022/05/15 11:42:09;;;;;;;15.38;4.93;;;27.30;99.90;;;;;;5030472;28;20230;-83
2022/05/15 11:44:37;;;;;;;12.15;3.90;;;27.20;99.90;;;;;;5034429;28;20268;-84
2022/05/15 11:47:26;;;;;;;11.43;4.05;;;27.50;99.90;;;;;;5038193;28;20205;-82
2022/05/15 11:50:09;;;;;;;14.45;4.50;;;27.40;99.90;;;;;;5052951;28;20636;-88
2022/05/15 11:52:40;;;;;;;14.60;4.90;;;27.40;99.90;;;;;;5050777;28;20208;-86
2022/05/15 11:55:53;;;;;;;14.23;4.68;;;27.40;99.90;;;;;;5045879;28;20206;-85
2022/05/15 11:58:41;;;;;;;9.30;3.80;;;27.30;99.90;;;;;;5030025;28;20210;-86
2022/05/15 12:01:15;;;;;;;12.80;4.53;;;27.60;99.90;;;;;;5029325;28;20191;-86
2022/05/15 12:03:48;;;;;;;13.98;4.72;;;27.60;99.90;;;;;;5044678;28;20221;-84
2022/05/15 12:06:18;;;;;;;10.15;4.32;;;27.20;99.90;;;;;;5046640;28;20233;-83
2022/05/15 12:08:53;;;;;;;15.60;4.75;;;27.20;99.90;;;;;;5046549;28;20201;-83
2022/05/15 12:11:38;;;;;;;12.95;4.55;;;26.80;99.90;;;;;;5046512;28;20208;-86
2022/05/15 12:14:30;;;;;;;11.27;4.18;;;26.80;99.90;;;;;;5047170;28;20298;-82
2022/05/15 12:17:00;;;;;;;11.60;4.00;;;26.70;99.90;;;;;;5046915;28;20202;-83
2022/05/15 12:19:30;;;;;;;13.95;4.68;;;26.80;99.90;;;;;;5046679;28;20209;-83
2022/05/15 12:22:01;;;;;;;13.48;4.43;;;26.70;99.90;;;;;;5055500;23;20244;-85
2022/05/15 12:24:34;;;;;;;12.73;4.07;;;26.70;99.90;;;;;;5068525;28;20201;-83
2022/05/15 12:27:17;;;;;;;13.57;3.83;;;26.60;99.90;;;;;;5045319;28;20225;-85
2022/05/15 12:30:03;;;;;;;13.77;4.30;;;26.50;99.90;;;;;;5048195;28;20309;-84
2022/05/15 12:32:35;;;;;;;14.27;4.53;;;26.60;99.90;;;;;;5048562;28;20193;-82
2022/05/15 12:35:05;;;;;;;12.23;4.03;;;26.60;99.90;;;;;;5048420;28;20216;-82
2022/05/15 12:37:49;;;;;;;11.80;3.92;;;26.60;99.90;;;;;;5051083;28;20205;-85
2022/05/15 12:40:16;;;;;;;12.48;4.03;;;26.50;99.90;;;;;;5051499;28;20204;-82
2022/05/15 12:42:43;;;;;;;13.18;4.53;;;26.30;99.90;;;;;;5052525;28;20201;-84
2022/05/15 12:45:13;;;;;;;13.50;4.38;;;26.00;99.90;;;;;;5051662;28;20317;-83
2022/05/15 12:47:41;;;;;;;11.25;4.22;;;26.10;99.90;;;;;;5051901;28;20204;-85
2022/05/15 12:50:14;;;;;;;11.88;4.30;;;26.10;99.90;;;;;;5052063;28;20222;-84
2022/05/15 12:52:43;;;;;;;12.95;3.95;;;26.20;99.90;;;;;;5051866;28;20202;-83
2022/05/15 12:55:20;;;;;;;11.85;4.38;;;26.30;99.90;;;;;;5050162;28;20669;-83
2022/05/15 12:57:49;;;;;;;21.00;5.15;;;26.50;99.90;;;;;;5051033;28;20201;-81
2022/05/15 13:00:19;;;;;;;10.82;4.18;;;26.40;99.90;;;;;;5050500;28;20268;-84
2022/05/15 13:02:47;;;;;;;10.30;4.45;;;25.90;99.90;;;;;;5049555;28;20637;-84
2022/05/15 13:05:23;;;;;;;12.68;6.45;;;26.00;99.90;;;;;;5049984;28;20258;-81
2022/05/15 13:07:57;;;;;;;9.23;3.85;;;26.10;99.90;;;;;;5051378;28;20618;-84
2022/05/15 13:10:25;;;;;;;9.73;3.83;;;25.80;99.90;;;;;;5050347;28;20265;-83
2022/05/15 13:12:57;;;;;;;11.43;3.70;;;26.10;99.90;;;;;;5050002;28;20478;-83
2022/05/15 13:15:28;;;;;;;10.75;4.32;;;26.20;99.90;;;;;;5064041;28;20213;-81
2022/05/15 13:17:57;;;;;;;8.65;3.50;;;26.10;99.90;;;;;;5068298;28;20205;-84
2022/05/15 13:20:27;;;;;;;7.97;3.35;;;26.20;99.90;;;;;;5070580;28;20197;-81
2022/05/15 13:22:56;;;;;;;10.45;3.58;;;26.30;99.90;;;;;;5077457;22;20630;-82
2022/05/15 13:25:26;;;;;;;8.43;3.50;;;26.20;99.90;;;;;;5068978;28;20220;-82
2022/05/15 13:27:54;;;;;;;9.02;3.50;;;25.80;99.90;;;;;;5066568;28;20205;-86
2022/05/15 13:30:23;;;;;;;13.80;3.35;;;25.70;99.90;;;;;;5048944;28;20226;-83
2022/05/15 13:32:53;;;;;;;12.95;4.22;;;25.50;99.90;;;;;;5048638;28;20648;-83